sensor_id;sensor_type;location;lat;lon;timestamp;P1;durP1;ratioP1;P2;durP2;ratioP2
57025;SDS011;43961;52.940;6.834;2024-03-23T00:53:49;43.13;;;14.32;;
57025;SDS011;43961;52.940;6.834;2024-03-23T00:56:15;53.10;;;15.63;;
57025;SDS011;43961;52.940;6.834;2024-03-23T00:58:40;44.35;;;15.27;;
57025;SDS011;43961;52.940;6.834;2024-03-23T01:01:06;43.28;;;14.73;;
57025;SDS011;43961;52.940;6.834;2024-03-23T01:03:31;50.10;;;16.17;;
57025;SDS011;43961;52.940;6.834;2024-03-23T01:06:00;52.70;;;15.48;;
57025;SDS011;43961;52.940;6.834;2024-03-23T01:08:26;57.45;;;16.50;;
57025;SDS011;43961;52.940;6.834;2024-03-23T01:10:56;55.72;;;16.08;;
57025;SDS011;43961;52.940;6.834;2024-03-23T01:13:23;60.88;;;17.00;;
57025;SDS011;43961;52.940;6.834;2024-03-23T01:15:49;61.60;;;17.73;;
57025;SDS011;43961;52.940;6.834;2024-03-23T01:18:16;54.00;;;15.73;;
57025;SDS011;43961;52.940;6.834;2024-03-23T01:20:43;58.13;;;18.13;;
57025;SDS011;43961;52.940;6.834;2024-03-23T01:23:08;64.32;;;16.58;;
57025;SDS011;43961;52.940;6.834;2024-03-23T01:25:35;42.30;;;17.63;;
57025;SDS011;43961;52.940;6.834;2024-03-23T01:28:01;57.35;;;15.85;;
57025;SDS011;43961;52.940;6.834;2024-03-23T01:30:27;53.83;;;16.52;;
57025;SDS011;43961;52.940;6.834;2024-03-23T01:32:53;55.28;;;16.40;;
57025;SDS011;43961;52.940;6.834;2024-03-23T01:35:18;56.95;;;16.50;;
57025;SDS011;43961;52.940;6.834;2024-03-23T01:37:44;49.95;;;15.13;;
57025;SDS011;43961;52.940;6.834;2024-03-23T01:40:10;52.63;;;15.32;;
57025;SDS011;43961;52.940;6.834;2024-03-23T01:42:38;53.58;;;15.20;;
57025;SDS011;43961;52.940;6.834;2024-03-23T01:45:07;40.97;;;14.15;;
57025;SDS011;43961;52.940;6.834;2024-03-23T01:47:34;57.30;;;14.75;;
57025;SDS011;43961;52.940;6.834;2024-03-23T01:50:00;48.00;;;14.63;;
57025;SDS011;43961;52.940;6.834;2024-03-23T01:52:26;54.85;;;15.27;;
57025;SDS011;43961;52.940;6.834;2024-03-23T01:54:52;47.90;;;14.85;;
57025;SDS011;43961;52.940;6.834;2024-03-23T01:57:18;55.15;;;15.82;;
57025;SDS011;43961;52.940;6.834;2024-03-23T01:59:46;55.93;;;17.27;;
57025;SDS011;43961;52.940;6.834;2024-03-23T02:02:12;67.28;;;16.63;;
57025;SDS011;43961;52.940;6.834;2024-03-23T02:04:38;64.40;;;15.40;;
57025;SDS011;43961;52.940;6.834;2024-03-23T02:07:04;42.03;;;14.07;;
57025;SDS011;43961;52.940;6.834;2024-03-23T02:09:31;54.50;;;15.82;;
57025;SDS011;43961;52.940;6.834;2024-03-23T02:11:57;56.90;;;15.88;;
57025;SDS011;43961;52.940;6.834;2024-03-23T02:14:23;58.85;;;15.90;;
57025;SDS011;43961;52.940;6.834;2024-03-23T02:16:49;55.35;;;14.48;;
57025;SDS011;43961;52.940;6.834;2024-03-23T02:19:14;59.65;;;15.88;;
57025;SDS011;43961;52.940;6.834;2024-03-23T02:21:40;54.40;;;17.05;;
57025;SDS011;43961;52.940;6.834;2024-03-23T02:24:05;44.92;;;15.07;;
57025;SDS011;43961;52.940;6.834;2024-03-23T02:26:32;55.05;;;16.27;;
57025;SDS011;43961;52.940;6.834;2024-03-23T02:28:58;45.92;;;14.93;;
57025;SDS011;43961;52.940;6.834;2024-03-23T02:31:23;56.58;;;15.70;;
57025;SDS011;43961;52.940;6.834;2024-03-23T02:33:49;59.03;;;16.42;;
57025;SDS011;43961;52.940;6.834;2024-03-23T02:36:14;53.30;;;15.38;;
57025;SDS011;43961;52.940;6.834;2024-03-23T02:38:40;47.42;;;15.85;;
57025;SDS011;43961;52.940;6.834;2024-03-23T02:41:06;50.13;;;14.07;;
57025;SDS011;43961;52.940;6.834;2024-03-23T02:43:31;51.28;;;15.50;;
57025;SDS011;43961;52.940;6.834;2024-03-23T02:45:57;57.63;;;15.40;;
57025;SDS011;43961;52.940;6.834;2024-03-23T02:48:23;59.25;;;16.33;;
57025;SDS011;43961;52.940;6.834;2024-03-23T02:50:49;41.90;;;15.13;;
57025;SDS011;43961;52.940;6.834;2024-03-23T02:53:15;53.80;;;16.40;;
57025;SDS011;43961;52.940;6.834;2024-03-23T02:55:41;55.63;;;16.33;;
57025;SDS011;43961;52.940;6.834;2024-03-23T02:58:06;51.03;;;15.80;;
57025;SDS011;43961;52.940;6.834;2024-03-23T03:00:32;58.70;;;15.80;;
57025;SDS011;43961;52.940;6.834;2024-03-23T03:02:57;59.10;;;17.13;;
57025;SDS011;43961;52.940;6.834;2024-03-23T03:05:23;60.30;;;16.85;;
57025;SDS011;43961;52.940;6.834;2024-03-23T03:07:49;54.33;;;15.52;;
57025;SDS011;43961;52.940;6.834;2024-03-23T03:10:14;57.95;;;16.48;;
57025;SDS011;43961;52.940;6.834;2024-03-23T03:12:40;64.35;;;17.90;;
57025;SDS011;43961;52.940;6.834;2024-03-23T03:15:07;54.15;;;16.48;;
57025;SDS011;43961;52.940;6.834;2024-03-23T03:17:34;63.55;;;17.40;;
57025;SDS011;43961;52.940;6.834;2024-03-23T03:20:00;50.17;;;16.52;;
57025;SDS011;43961;52.940;6.834;2024-03-23T03:22:27;61.17;;;17.30;;
57025;SDS011;43961;52.940;6.834;2024-03-23T03:24:53;57.10;;;16.30;;
57025;SDS011;43961;52.940;6.834;2024-03-23T03:27:19;59.15;;;18.55;;
57025;SDS011;43961;52.940;6.834;2024-03-23T03:29:45;52.83;;;16.75;;
57025;SDS011;43961;52.940;6.834;2024-03-23T03:32:11;58.17;;;19.00;;
57025;SDS011;43961;52.940;6.834;2024-03-23T03:34:36;54.88;;;16.25;;
57025;SDS011;43961;52.940;6.834;2024-03-23T03:37:02;53.85;;;17.00;;
57025;SDS011;43961;52.940;6.834;2024-03-23T03:39:28;54.75;;;14.70;;
57025;SDS011;43961;52.940;6.834;2024-03-23T03:41:53;52.47;;;15.40;;
57025;SDS011;43961;52.940;6.834;2024-03-23T03:44:19;62.63;;;17.45;;
57025;SDS011;43961;52.940;6.834;2024-03-23T03:46:44;57.25;;;16.10;;
57025;SDS011;43961;52.940;6.834;2024-03-23T03:49:10;59.90;;;16.48;;
57025;SDS011;43961;52.940;6.834;2024-03-23T03:51:36;52.42;;;16.33;;
57025;SDS011;43961;52.940;6.834;2024-03-23T03:54:02;37.47;;;14.07;;
57025;SDS011;43961;52.940;6.834;2024-03-23T03:56:28;48.75;;;16.38;;
57025;SDS011;43961;52.940;6.834;2024-03-23T03:58:53;53.55;;;15.85;;
57025;SDS011;43961;52.940;6.834;2024-03-23T04:01:19;45.15;;;16.08;;
57025;SDS011;43961;52.940;6.834;2024-03-23T04:03:45;43.58;;;15.88;;
57025;SDS011;43961;52.940;6.834;2024-03-23T04:06:11;46.22;;;16.45;;
57025;SDS011;43961;52.940;6.834;2024-03-23T04:08:43;45.75;;;16.15;;
57025;SDS011;43961;52.940;6.834;2024-03-23T04:11:09;44.58;;;14.68;;
57025;SDS011;43961;52.940;6.834;2024-03-23T04:13:34;54.08;;;14.77;;
57025;SDS011;43961;52.940;6.834;2024-03-23T04:16:00;47.70;;;14.63;;
57025;SDS011;43961;52.940;6.834;2024-03-23T04:18:25;54.00;;;16.27;;
57025;SDS011;43961;52.940;6.834;2024-03-23T04:20:51;41.90;;;15.52;;
57025;SDS011;43961;52.940;6.834;2024-03-23T04:23:17;54.47;;;15.95;;
57025;SDS011;43961;52.940;6.834;2024-03-23T04:25:44;50.05;;;16.33;;
57025;SDS011;43961;52.940;6.834;2024-03-23T04:28:09;56.95;;;16.05;;
57025;SDS011;43961;52.940;6.834;2024-03-23T04:30:35;45.85;;;15.55;;
57025;SDS011;43961;52.940;6.834;2024-03-23T04:33:01;56.40;;;14.43;;
57025;SDS011;43961;52.940;6.834;2024-03-23T04:35:27;52.97;;;16.05;;
57025;SDS011;43961;52.940;6.834;2024-03-23T04:37:53;56.60;;;15.98;;
57025;SDS011;43961;52.940;6.834;2024-03-23T04:40:21;52.70;;;15.40;;
57025;SDS011;43961;52.940;6.834;2024-03-23T04:42:47;46.15;;;16.00;;
57025;SDS011;43961;52.940;6.834;2024-03-23T04:45:13;40.75;;;15.45;;
57025;SDS011;43961;52.940;6.834;2024-03-23T04:47:39;68.63;;;17.75;;
57025;SDS011;43961;52.940;6.834;2024-03-23T04:50:05;55.72;;;14.57;;
57025;SDS011;43961;52.940;6.834;2024-03-23T04:52:30;48.03;;;16.10;;
57025;SDS011;43961;52.940;6.834;2024-03-23T04:54:56;64.40;;;15.75;;
57025;SDS011;43961;52.940;6.834;2024-03-23T04:57:22;62.00;;;16.30;;
57025;SDS011;43961;52.940;6.834;2024-03-23T04:59:48;59.67;;;16.90;;
57025;SDS011;43961;52.940;6.834;2024-03-23T05:02:14;67.20;;;18.25;;
57025;SDS011;43961;52.940;6.834;2024-03-23T05:04:40;56.42;;;16.88;;
57025;SDS011;43961;52.940;6.834;2024-03-23T05:07:06;51.75;;;14.48;;
57025;SDS011;43961;52.940;6.834;2024-03-23T05:09:31;40.80;;;15.73;;
57025;SDS011;43961;52.940;6.834;2024-03-23T05:11:58;63.45;;;15.98;;
57025;SDS011;43961;52.940;6.834;2024-03-23T05:16:52;54.45;;;14.65;;
57025;SDS011;43961;52.940;6.834;2024-03-23T05:19:18;53.55;;;15.82;;
57025;SDS011;43961;52.940;6.834;2024-03-23T05:21:44;42.45;;;15.32;;
57025;SDS011;43961;52.940;6.834;2024-03-23T05:24:10;56.58;;;16.42;;
57025;SDS011;43961;52.940;6.834;2024-03-23T05:26:37;54.83;;;15.35;;
57025;SDS011;43961;52.940;6.834;2024-03-23T05:29:02;47.92;;;14.43;;
57025;SDS011;43961;52.940;6.834;2024-03-23T05:31:29;51.90;;;15.18;;
57025;SDS011;43961;52.940;6.834;2024-03-23T05:33:56;76.20;;;15.95;;
57025;SDS011;43961;52.940;6.834;2024-03-23T05:36:21;39.92;;;13.68;;
57025;SDS011;43961;52.940;6.834;2024-03-23T05:38:49;59.05;;;13.98;;
57025;SDS011;43961;52.940;6.834;2024-03-23T05:41:14;52.97;;;14.57;;
57025;SDS011;43961;52.940;6.834;2024-03-23T05:43:40;51.17;;;15.82;;
57025;SDS011;43961;52.940;6.834;2024-03-23T05:46:06;64.88;;;16.30;;
57025;SDS011;43961;52.940;6.834;2024-03-23T05:48:32;56.38;;;16.25;;
57025;SDS011;43961;52.940;6.834;2024-03-23T05:50:58;51.63;;;15.02;;
57025;SDS011;43961;52.940;6.834;2024-03-23T05:53:25;54.50;;;15.07;;
57025;SDS011;43961;52.940;6.834;2024-03-23T05:55:59;55.97;;;14.63;;
57025;SDS011;43961;52.940;6.834;2024-03-23T05:58:26;43.40;;;14.02;;
57025;SDS011;43961;52.940;6.834;2024-03-23T06:00:56;56.42;;;14.25;;
57025;SDS011;43961;52.940;6.834;2024-03-23T06:03:23;47.95;;;13.43;;
57025;SDS011;43961;52.940;6.834;2024-03-23T06:05:50;45.70;;;13.73;;
57025;SDS011;43961;52.940;6.834;2024-03-23T06:08:16;49.58;;;14.48;;
57025;SDS011;43961;52.940;6.834;2024-03-23T06:10:43;55.67;;;15.32;;
57025;SDS011;43961;52.940;6.834;2024-03-23T06:13:08;39.25;;;13.15;;
57025;SDS011;43961;52.940;6.834;2024-03-23T06:15:34;41.05;;;14.05;;
57025;SDS011;43961;52.940;6.834;2024-03-23T06:18:02;47.85;;;14.38;;
57025;SDS011;43961;52.940;6.834;2024-03-23T06:20:29;48.03;;;14.93;;
57025;SDS011;43961;52.940;6.834;2024-03-23T06:22:54;53.70;;;14.90;;
57025;SDS011;43961;52.940;6.834;2024-03-23T06:25:20;63.03;;;16.13;;
57025;SDS011;43961;52.940;6.834;2024-03-23T06:27:45;67.80;;;15.15;;
57025;SDS011;43961;52.940;6.834;2024-03-23T06:30:11;70.22;;;15.02;;
57025;SDS011;43961;52.940;6.834;2024-03-23T06:32:37;42.42;;;15.13;;
57025;SDS011;43961;52.940;6.834;2024-03-23T06:35:03;52.80;;;15.00;;
57025;SDS011;43961;52.940;6.834;2024-03-23T06:37:33;62.47;;;14.57;;
57025;SDS011;43961;52.940;6.834;2024-03-23T06:40:00;48.28;;;12.63;;
57025;SDS011;43961;52.940;6.834;2024-03-23T06:42:26;49.63;;;11.93;;
57025;SDS011;43961;52.940;6.834;2024-03-23T06:44:51;36.25;;;12.18;;
57025;SDS011;43961;52.940;6.834;2024-03-23T06:47:17;37.58;;;11.52;;
57025;SDS011;43961;52.940;6.834;2024-03-23T06:49:43;32.85;;;8.80;;
57025;SDS011;43961;52.940;6.834;2024-03-23T06:52:08;23.27;;;7.78;;
57025;SDS011;43961;52.940;6.834;2024-03-23T06:54:34;27.58;;;6.80;;
57025;SDS011;43961;52.940;6.834;2024-03-23T06:56:59;22.15;;;6.72;;
57025;SDS011;43961;52.940;6.834;2024-03-23T06:59:26;29.48;;;7.63;;
57025;SDS011;43961;52.940;6.834;2024-03-23T07:01:52;22.65;;;6.90;;
57025;SDS011;43961;52.940;6.834;2024-03-23T07:04:18;21.75;;;6.95;;
57025;SDS011;43961;52.940;6.834;2024-03-23T07:06:44;21.58;;;5.97;;
57025;SDS011;43961;52.940;6.834;2024-03-23T07:09:10;19.08;;;6.18;;
57025;SDS011;43961;52.940;6.834;2024-03-23T07:11:36;22.77;;;7.00;;
57025;SDS011;43961;52.940;6.834;2024-03-23T07:14:02;19.98;;;6.78;;
57025;SDS011;43961;52.940;6.834;2024-03-23T07:16:28;21.00;;;6.78;;
57025;SDS011;43961;52.940;6.834;2024-03-23T07:18:54;15.50;;;6.88;;
57025;SDS011;43961;52.940;6.834;2024-03-23T07:21:20;19.15;;;7.47;;
57025;SDS011;43961;52.940;6.834;2024-03-23T07:23:47;16.27;;;5.80;;
57025;SDS011;43961;52.940;6.834;2024-03-23T07:26:13;19.00;;;6.30;;
57025;SDS011;43961;52.940;6.834;2024-03-23T07:28:38;19.33;;;7.15;;
57025;SDS011;43961;52.940;6.834;2024-03-23T07:31:09;18.63;;;6.93;;
57025;SDS011;43961;52.940;6.834;2024-03-23T07:33:37;26.20;;;9.38;;
57025;SDS011;43961;52.940;6.834;2024-03-23T07:36:06;25.23;;;7.00;;
57025;SDS011;43961;52.940;6.834;2024-03-23T07:38:32;31.05;;;8.63;;
57025;SDS011;43961;52.940;6.834;2024-03-23T07:43:33;23.77;;;8.63;;
57025;SDS011;43961;52.940;6.834;2024-03-23T07:45:59;35.38;;;10.07;;
57025;SDS011;43961;52.940;6.834;2024-03-23T07:48:25;36.92;;;9.82;;
57025;SDS011;43961;52.940;6.834;2024-03-23T07:53:23;25.48;;;9.73;;
57025;SDS011;43961;52.940;6.834;2024-03-23T07:55:53;31.25;;;10.23;;
57025;SDS011;43961;52.940;6.834;2024-03-23T07:58:22;23.35;;;8.90;;
57025;SDS011;43961;52.940;6.834;2024-03-23T08:00:48;19.55;;;7.88;;
57025;SDS011;43961;52.940;6.834;2024-03-23T08:03:14;24.20;;;7.80;;
57025;SDS011;43961;52.940;6.834;2024-03-23T08:05:40;23.98;;;5.75;;
57025;SDS011;43961;52.940;6.834;2024-03-23T08:08:06;14.52;;;6.38;;
57025;SDS011;43961;52.940;6.834;2024-03-23T08:10:31;16.02;;;6.18;;
57025;SDS011;43961;52.940;6.834;2024-03-23T08:12:57;18.60;;;6.80;;
57025;SDS011;43961;52.940;6.834;2024-03-23T08:15:25;22.30;;;7.45;;
57025;SDS011;43961;52.940;6.834;2024-03-23T08:17:50;16.58;;;8.13;;
57025;SDS011;43961;52.940;6.834;2024-03-23T08:20:17;16.70;;;7.38;;
57025;SDS011;43961;52.940;6.834;2024-03-23T08:22:43;17.25;;;7.60;;
57025;SDS011;43961;52.940;6.834;2024-03-23T08:25:08;21.73;;;6.70;;
57025;SDS011;43961;52.940;6.834;2024-03-23T08:27:34;23.17;;;6.47;;
57025;SDS011;43961;52.940;6.834;2024-03-23T08:29:59;12.10;;;5.32;;
57025;SDS011;43961;52.940;6.834;2024-03-23T08:32:25;14.13;;;6.00;;
57025;SDS011;43961;52.940;6.834;2024-03-23T08:34:51;15.40;;;5.60;;
57025;SDS011;43961;52.940;6.834;2024-03-23T08:37:17;19.42;;;5.68;;
57025;SDS011;43961;52.940;6.834;2024-03-23T08:39:43;18.80;;;5.82;;
57025;SDS011;43961;52.940;6.834;2024-03-23T08:42:09;26.50;;;6.43;;
57025;SDS011;43961;52.940;6.834;2024-03-23T08:44:34;20.88;;;6.40;;
57025;SDS011;43961;52.940;6.834;2024-03-23T08:47:00;24.42;;;7.07;;
57025;SDS011;43961;52.940;6.834;2024-03-23T08:49:26;22.63;;;5.80;;
57025;SDS011;43961;52.940;6.834;2024-03-23T08:51:52;20.75;;;7.88;;
57025;SDS011;43961;52.940;6.834;2024-03-23T08:54:19;16.40;;;6.28;;
57025;SDS011;43961;52.940;6.834;2024-03-23T08:56:45;19.90;;;5.97;;
57025;SDS011;43961;52.940;6.834;2024-03-23T08:59:11;18.13;;;6.68;;
57025;SDS011;43961;52.940;6.834;2024-03-23T09:01:37;23.70;;;7.18;;
57025;SDS011;43961;52.940;6.834;2024-03-23T09:04:03;16.10;;;7.47;;
57025;SDS011;43961;52.940;6.834;2024-03-23T09:06:29;17.83;;;6.97;;
57025;SDS011;43961;52.940;6.834;2024-03-23T09:08:55;18.65;;;7.75;;
57025;SDS011;43961;52.940;6.834;2024-03-23T09:11:20;20.42;;;7.38;;
57025;SDS011;43961;52.940;6.834;2024-03-23T09:13:46;18.60;;;7.40;;
57025;SDS011;43961;52.940;6.834;2024-03-23T09:16:12;22.27;;;7.65;;
57025;SDS011;43961;52.940;6.834;2024-03-23T09:18:38;27.95;;;8.52;;
57025;SDS011;43961;52.940;6.834;2024-03-23T09:21:04;22.65;;;7.45;;
57025;SDS011;43961;52.940;6.834;2024-03-23T09:23:36;17.77;;;7.63;;
57025;SDS011;43961;52.940;6.834;2024-03-23T09:26:04;38.92;;;8.23;;
57025;SDS011;43961;52.940;6.834;2024-03-23T09:28:33;21.52;;;8.63;;
57025;SDS011;43961;52.940;6.834;2024-03-23T09:31:05;19.58;;;8.40;;
57025;SDS011;43961;52.940;6.834;2024-03-23T09:33:40;19.65;;;7.75;;
57025;SDS011;43961;52.940;6.834;2024-03-23T09:36:07;28.30;;;8.40;;
57025;SDS011;43961;52.940;6.834;2024-03-23T09:38:33;19.02;;;6.90;;
57025;SDS011;43961;52.940;6.834;2024-03-23T09:40:59;24.73;;;7.85;;
57025;SDS011;43961;52.940;6.834;2024-03-23T09:43:25;21.48;;;7.78;;
57025;SDS011;43961;52.940;6.834;2024-03-23T09:45:51;29.35;;;8.20;;
57025;SDS011;43961;52.940;6.834;2024-03-23T09:48:17;20.27;;;6.68;;
57025;SDS011;43961;52.940;6.834;2024-03-23T09:50:43;24.92;;;6.95;;
57025;SDS011;43961;52.940;6.834;2024-03-23T09:53:13;21.17;;;7.10;;
57025;SDS011;43961;52.940;6.834;2024-03-23T09:55:43;25.50;;;8.25;;
57025;SDS011;43961;52.940;6.834;2024-03-23T09:58:13;21.52;;;7.60;;
57025;SDS011;43961;52.940;6.834;2024-03-23T10:00:40;18.33;;;7.60;;
57025;SDS011;43961;52.940;6.834;2024-03-23T10:03:06;27.73;;;8.05;;
57025;SDS011;43961;52.940;6.834;2024-03-23T10:05:32;24.50;;;7.93;;
57025;SDS011;43961;52.940;6.834;2024-03-23T10:07:59;32.30;;;8.27;;
57025;SDS011;43961;52.940;6.834;2024-03-23T10:10:42;19.85;;;7.78;;
57025;SDS011;43961;52.940;6.834;2024-03-23T10:13:08;22.90;;;6.75;;
57025;SDS011;43961;52.940;6.834;2024-03-23T10:15:34;22.58;;;7.63;;
57025;SDS011;43961;52.940;6.834;2024-03-23T10:20:50;16.90;;;6.32;;
57025;SDS011;43961;52.940;6.834;2024-03-23T10:23:34;17.38;;;6.10;;
57025;SDS011;43961;52.940;6.834;2024-03-23T10:26:20;25.27;;;6.60;;
57025;SDS011;43961;52.940;6.834;2024-03-23T10:31:18;24.63;;;6.53;;
57025;SDS011;43961;52.940;6.834;2024-03-23T10:33:45;17.58;;;6.05;;
57025;SDS011;43961;52.940;6.834;2024-03-23T10:36:12;20.25;;;5.80;;
57025;SDS011;43961;52.940;6.834;2024-03-23T10:38:39;11.38;;;4.93;;
57025;SDS011;43961;52.940;6.834;2024-03-23T10:41:07;22.40;;;5.82;;
57025;SDS011;43961;52.940;6.834;2024-03-23T10:43:34;16.27;;;5.15;;
57025;SDS011;43961;52.940;6.834;2024-03-23T10:46:01;20.05;;;5.90;;
57025;SDS011;43961;52.940;6.834;2024-03-23T10:48:26;14.60;;;5.90;;
57025;SDS011;43961;52.940;6.834;2024-03-23T10:50:53;21.67;;;6.20;;
57025;SDS011;43961;52.940;6.834;2024-03-23T10:53:20;12.15;;;4.53;;
57025;SDS011;43961;52.940;6.834;2024-03-23T10:55:50;21.92;;;6.00;;
57025;SDS011;43961;52.940;6.834;2024-03-23T10:58:17;13.32;;;5.82;;
57025;SDS011;43961;52.940;6.834;2024-03-23T11:00:46;20.63;;;6.22;;
57025;SDS011;43961;52.940;6.834;2024-03-23T11:03:31;23.92;;;5.97;;
57025;SDS011;43961;52.940;6.834;2024-03-23T11:05:57;15.13;;;5.57;;
57025;SDS011;43961;52.940;6.834;2024-03-23T11:11:19;30.90;;;7.07;;
57025;SDS011;43961;52.940;6.834;2024-03-23T11:13:51;20.65;;;6.15;;
57025;SDS011;43961;52.940;6.834;2024-03-23T11:16:22;8.00;;;3.78;;
57025;SDS011;43961;52.940;6.834;2024-03-23T11:18:48;10.65;;;3.25;;
57025;SDS011;43961;52.940;6.834;2024-03-23T11:24:20;5.15;;;2.17;;
57025;SDS011;43961;52.940;6.834;2024-03-23T11:26:47;5.93;;;2.33;;
57025;SDS011;43961;52.940;6.834;2024-03-23T11:29:14;12.80;;;2.30;;
57025;SDS011;43961;52.940;6.834;2024-03-23T11:31:47;10.30;;;2.67;;
57025;SDS011;43961;52.940;6.834;2024-03-23T11:34:13;7.88;;;2.75;;
57025;SDS011;43961;52.940;6.834;2024-03-23T11:36:40;11.75;;;2.75;;
57025;SDS011;43961;52.940;6.834;2024-03-23T11:39:14;8.00;;;3.67;;
57025;SDS011;43961;52.940;6.834;2024-03-23T11:41:52;7.85;;;3.25;;
57025;SDS011;43961;52.940;6.834;2024-03-23T11:44:23;13.30;;;4.13;;
57025;SDS011;43961;52.940;6.834;2024-03-23T11:46:50;15.85;;;4.75;;
57025;SDS011;43961;52.940;6.834;2024-03-23T11:49:26;14.82;;;4.40;;
57025;SDS011;43961;52.940;6.834;2024-03-23T11:51:53;14.85;;;4.35;;
57025;SDS011;43961;52.940;6.834;2024-03-23T11:54:23;15.35;;;4.35;;
57025;SDS011;43961;52.940;6.834;2024-03-23T11:56:57;10.73;;;4.00;;
57025;SDS011;43961;52.940;6.834;2024-03-23T11:59:31;21.23;;;5.18;;
57025;SDS011;43961;52.940;6.834;2024-03-23T12:02:00;9.77;;;3.67;;
57025;SDS011;43961;52.940;6.834;2024-03-23T12:04:31;8.40;;;3.67;;
57025;SDS011;43961;52.940;6.834;2024-03-23T12:09:45;20.10;;;3.67;;
57025;SDS011;43961;52.940;6.834;2024-03-23T12:12:15;13.85;;;3.85;;
57025;SDS011;43961;52.940;6.834;2024-03-23T12:14:45;15.05;;;3.88;;
57025;SDS011;43961;52.940;6.834;2024-03-23T12:17:30;14.52;;;4.35;;
57025;SDS011;43961;52.940;6.834;2024-03-23T12:19:57;19.50;;;5.28;;
57025;SDS011;43961;52.940;6.834;2024-03-23T12:22:23;24.02;;;5.88;;
57025;SDS011;43961;52.940;6.834;2024-03-23T12:24:49;10.70;;;2.60;;
57025;SDS011;43961;52.940;6.834;2024-03-23T12:27:15;3.60;;;1.42;;
57025;SDS011;43961;52.940;6.834;2024-03-23T12:29:41;6.05;;;2.15;;
57025;SDS011;43961;52.940;6.834;2024-03-23T12:32:08;5.13;;;1.95;;
57025;SDS011;43961;52.940;6.834;2024-03-23T12:34:34;8.40;;;2.63;;
57025;SDS011;43961;52.940;6.834;2024-03-23T12:37:00;4.88;;;2.40;;
57025;SDS011;43961;52.940;6.834;2024-03-23T12:39:27;7.90;;;2.25;;
57025;SDS011;43961;52.940;6.834;2024-03-23T12:41:52;10.45;;;3.28;;
57025;SDS011;43961;52.940;6.834;2024-03-23T12:44:18;6.95;;;2.83;;
57025;SDS011;43961;52.940;6.834;2024-03-23T12:46:44;8.52;;;2.78;;
57025;SDS011;43961;52.940;6.834;2024-03-23T12:49:10;12.90;;;4.63;;
57025;SDS011;43961;52.940;6.834;2024-03-23T12:51:36;14.55;;;5.13;;
57025;SDS011;43961;52.940;6.834;2024-03-23T12:54:02;13.23;;;5.57;;
57025;SDS011;43961;52.940;6.834;2024-03-23T12:56:28;11.38;;;5.07;;
57025;SDS011;43961;52.940;6.834;2024-03-23T12:58:54;19.83;;;6.57;;
57025;SDS011;43961;52.940;6.834;2024-03-23T13:01:23;14.98;;;5.50;;
57025;SDS011;43961;52.940;6.834;2024-03-23T13:03:49;15.63;;;5.32;;
57025;SDS011;43961;52.940;6.834;2024-03-23T13:06:16;13.50;;;5.13;;
57025;SDS011;43961;52.940;6.834;2024-03-23T13:08:44;23.75;;;5.82;;
57025;SDS011;43961;52.940;6.834;2024-03-23T13:11:14;26.92;;;6.25;;
57025;SDS011;43961;52.940;6.834;2024-03-23T13:13:40;19.05;;;6.15;;
57025;SDS011;43961;52.940;6.834;2024-03-23T13:16:07;18.02;;;5.63;;
57025;SDS011;43961;52.940;6.834;2024-03-23T13:18:33;19.05;;;5.68;;
57025;SDS011;43961;52.940;6.834;2024-03-23T13:20:59;23.65;;;6.75;;
57025;SDS011;43961;52.940;6.834;2024-03-23T13:23:25;16.80;;;5.45;;
57025;SDS011;43961;52.940;6.834;2024-03-23T13:25:51;18.27;;;5.28;;
57025;SDS011;43961;52.940;6.834;2024-03-23T13:28:20;18.50;;;5.25;;
57025;SDS011;43961;52.940;6.834;2024-03-23T13:30:50;14.15;;;5.47;;
57025;SDS011;43961;52.940;6.834;2024-03-23T13:33:16;17.85;;;6.10;;
57025;SDS011;43961;52.940;6.834;2024-03-23T13:35:48;25.10;;;5.97;;
57025;SDS011;43961;52.940;6.834;2024-03-23T13:38:21;13.93;;;5.05;;
57025;SDS011;43961;52.940;6.834;2024-03-23T13:43:23;25.83;;;7.00;;
57025;SDS011;43961;52.940;6.834;2024-03-23T13:45:54;13.43;;;5.82;;
57025;SDS011;43961;52.940;6.834;2024-03-23T13:48:21;22.30;;;6.50;;
57025;SDS011;43961;52.940;6.834;2024-03-23T13:50:47;20.38;;;6.68;;
57025;SDS011;43961;52.940;6.834;2024-03-23T13:53:21;19.08;;;5.45;;
57025;SDS011;43961;52.940;6.834;2024-03-23T13:55:48;16.50;;;4.82;;
57025;SDS011;43961;52.940;6.834;2024-03-23T13:58:15;11.13;;;3.95;;
57025;SDS011;43961;52.940;6.834;2024-03-23T14:00:41;20.90;;;5.50;;
57025;SDS011;43961;52.940;6.834;2024-03-23T14:03:10;20.13;;;6.18;;
57025;SDS011;43961;52.940;6.834;2024-03-23T14:05:37;22.02;;;6.57;;
57025;SDS011;43961;52.940;6.834;2024-03-23T14:10:32;23.67;;;6.40;;
57025;SDS011;43961;52.940;6.834;2024-03-23T14:12:57;22.60;;;6.88;;
57025;SDS011;43961;52.940;6.834;2024-03-23T14:15:26;26.20;;;6.90;;
57025;SDS011;43961;52.940;6.834;2024-03-23T14:17:52;20.67;;;7.17;;
57025;SDS011;43961;52.940;6.834;2024-03-23T14:20:19;17.90;;;6.63;;
57025;SDS011;43961;52.940;6.834;2024-03-23T14:22:46;24.63;;;7.72;;
57025;SDS011;43961;52.940;6.834;2024-03-23T14:25:11;26.17;;;7.03;;
57025;SDS011;43961;52.940;6.834;2024-03-23T14:27:37;24.33;;;7.57;;
57025;SDS011;43961;52.940;6.834;2024-03-23T14:30:03;18.77;;;6.88;;
57025;SDS011;43961;52.940;6.834;2024-03-23T14:32:32;22.55;;;7.47;;
57025;SDS011;43961;52.940;6.834;2024-03-23T14:35:00;22.20;;;6.60;;
57025;SDS011;43961;52.940;6.834;2024-03-23T14:37:26;25.08;;;7.55;;
57025;SDS011;43961;52.940;6.834;2024-03-23T14:39:51;22.10;;;7.90;;
57025;SDS011;43961;52.940;6.834;2024-03-23T14:42:17;31.42;;;7.10;;
57025;SDS011;43961;52.940;6.834;2024-03-23T14:44:43;21.05;;;7.78;;
57025;SDS011;43961;52.940;6.834;2024-03-23T14:47:08;28.50;;;7.85;;
57025;SDS011;43961;52.940;6.834;2024-03-23T14:49:34;26.73;;;7.25;;
57025;SDS011;43961;52.940;6.834;2024-03-23T14:51:59;38.58;;;7.13;;
57025;SDS011;43961;52.940;6.834;2024-03-23T14:54:25;23.42;;;6.25;;
57025;SDS011;43961;52.940;6.834;2024-03-23T14:56:51;12.05;;;5.30;;
57025;SDS011;43961;52.940;6.834;2024-03-23T14:59:17;21.65;;;6.95;;
57025;SDS011;43961;52.940;6.834;2024-03-23T15:01:44;20.73;;;6.15;;
57025;SDS011;43961;52.940;6.834;2024-03-23T15:04:10;33.60;;;6.93;;
57025;SDS011;43961;52.940;6.834;2024-03-23T15:06:36;16.25;;;6.65;;
57025;SDS011;43961;52.940;6.834;2024-03-23T15:09:01;26.67;;;7.60;;
57025;SDS011;43961;52.940;6.834;2024-03-23T15:11:32;16.60;;;4.97;;
57025;SDS011;43961;52.940;6.834;2024-03-23T15:13:57;20.23;;;4.40;;
57025;SDS011;43961;52.940;6.834;2024-03-23T15:16:23;14.25;;;4.38;;
57025;SDS011;43961;52.940;6.834;2024-03-23T15:18:48;14.63;;;4.60;;
57025;SDS011;43961;52.940;6.834;2024-03-23T15:21:15;15.35;;;5.15;;
57025;SDS011;43961;52.940;6.834;2024-03-23T15:23:45;24.17;;;5.35;;
57025;SDS011;43961;52.940;6.834;2024-03-23T15:26:11;18.02;;;4.85;;
57025;SDS011;43961;52.940;6.834;2024-03-23T15:28:37;23.13;;;6.15;;
57025;SDS011;43961;52.940;6.834;2024-03-23T15:31:03;16.45;;;5.10;;
57025;SDS011;43961;52.940;6.834;2024-03-23T15:33:29;14.02;;;5.07;;
57025;SDS011;43961;52.940;6.834;2024-03-23T15:36:04;16.63;;;4.93;;
57025;SDS011;43961;52.940;6.834;2024-03-23T15:38:33;13.77;;;5.25;;
57025;SDS011;43961;52.940;6.834;2024-03-23T15:40:59;21.83;;;4.78;;
57025;SDS011;43961;52.940;6.834;2024-03-23T15:43:26;22.02;;;5.85;;
57025;SDS011;43961;52.940;6.834;2024-03-23T15:45:58;20.92;;;6.40;;
57025;SDS011;43961;52.940;6.834;2024-03-23T15:48:29;14.63;;;5.65;;